Time;durP1;ratioP1;P1;durP2;ratioP2;P2;SDS_P1;SDS_P2;PMS_P1;PMS_P2;Temp;Humidity;BMP_temperature;BMP_pressure;BME280_temperature;BME280_humidity;BME280_pressure;Samples;Min_cycle;Max_cycle;Signal;HPM_P1;HPM_P2
2022/10/08 00:01:16;;;;;;;5.80;5.17;;;18.30;78.30;;;-142.21;100.00;112049.66;5111495;28;20211;-70
2022/10/08 00:03:46;;;;;;;7.60;5.57;;;18.30;78.40;;;-142.21;100.00;112049.66;5111700;28;20421;-71
2022/10/08 00:06:18;;;;;;;6.33;4.73;;;18.40;78.40;;;-142.21;100.00;112049.66;5111737;28;20712;-70
2022/10/08 00:08:50;;;;;;;6.27;5.37;;;18.40;78.30;;;-142.21;100.00;112049.66;5111955;28;20485;-70
2022/10/08 00:11:20;;;;;;;7.87;5.77;;;18.40;78.40;;;-142.21;100.00;112049.66;5111439;28;20436;-70
2022/10/08 00:13:49;;;;;;;10.07;5.90;;;18.40;78.30;;;-142.21;100.00;112049.66;5111671;28;20438;-70
2022/10/08 00:16:20;;;;;;;11.43;5.80;;;18.40;78.40;;;-142.21;100.00;112049.66;5111460;28;20491;-71
2022/10/08 00:18:50;;;;;;;8.03;6.57;;;18.40;78.50;;;-142.21;100.00;112049.66;5112100;28;20422;-71
2022/10/08 00:21:22;;;;;;;7.33;6.40;;;18.40;78.70;;;-142.21;100.00;112049.66;5111324;28;20430;-71
2022/10/08 00:23:51;;;;;;;8.43;6.50;;;18.40;78.90;;;-142.21;100.00;112049.66;5112119;28;20508;-71
2022/10/08 00:26:23;;;;;;;10.70;6.40;;;18.40;78.90;;;-142.21;100.00;112049.66;5111513;28;20470;-71
2022/10/08 00:28:53;;;;;;;9.20;5.93;;;18.40;78.80;;;-142.21;100.00;112049.66;5111710;28;20496;-71
2022/10/08 00:31:24;;;;;;;7.03;6.30;;;18.40;78.80;;;-142.21;100.00;112049.66;5111248;28;20445;-71
2022/10/08 00:33:53;;;;;;;8.53;6.13;;;18.40;78.90;;;-142.21;100.00;112049.66;5111558;28;20436;-70
2022/10/08 00:36:23;;;;;;;7.03;6.13;;;18.40;79.10;;;-142.21;100.00;112049.66;5111088;28;20441;-71
2022/10/08 00:38:56;;;;;;;6.67;5.90;;;18.40;79.40;;;-142.21;100.00;112049.66;5111413;28;20449;-72
2022/10/08 00:41:26;;;;;;;8.70;6.57;;;18.40;79.30;;;-142.21;100.00;112049.66;5111092;28;20421;-71
2022/10/08 00:43:58;;;;;;;6.83;5.97;;;18.40;79.00;;;-142.21;100.00;112049.66;5111715;28;20430;-71
2022/10/08 00:46:30;;;;;;;8.33;6.17;;;18.50;79.30;;;-142.21;100.00;112049.66;5111023;28;20516;-70
2022/10/08 00:49:04;;;;;;;7.27;6.30;;;18.50;79.10;;;-142.21;100.00;112049.66;5111477;28;20554;-70
2022/10/08 00:51:34;;;;;;;7.43;6.37;;;18.50;79.30;;;-142.21;100.00;112049.66;5111111;28;20426;-70
2022/10/08 00:54:02;;;;;;;14.30;6.13;;;18.40;79.40;;;-142.21;100.00;112049.66;5111466;28;20430;-69
2022/10/08 00:56:35;;;;;;;7.67;6.30;;;18.50;79.20;;;-142.21;100.00;112049.66;5110824;28;20571;-70
2022/10/08 00:59:03;;;;;;;7.90;6.33;;;18.50;79.00;;;-142.21;100.00;112049.66;5111892;28;20269;-71
2022/10/08 01:01:30;;;;;;;7.90;6.50;;;18.50;79.00;;;-142.21;100.00;112049.66;5110679;28;20207;-70
2022/10/08 01:04:01;;;;;;;10.63;6.10;;;18.50;79.00;;;-142.21;100.00;112049.66;5111260;28;20524;-70
2022/10/08 01:06:37;;;;;;;12.07;6.70;;;18.50;79.00;;;-142.21;100.00;112049.66;5110800;28;20963;-71
2022/10/08 01:09:15;;;;;;;8.93;6.90;;;18.50;79.10;;;-142.21;100.00;112049.66;5115140;28;20488;-69
2022/10/08 01:11:51;;;;;;;10.03;6.43;;;18.50;79.40;;;-142.21;100.00;112049.66;5115450;28;20267;-70
2022/10/08 01:14:34;;;;;;;10.77;6.80;;;18.50;79.80;;;-142.21;100.00;112049.66;5115011;28;20286;-71
2022/10/08 01:17:12;;;;;;;7.10;6.30;;;18.50;79.80;;;-142.21;100.00;112049.66;5115153;28;20984;-70
2022/10/08 01:20:12;;;;;;;8.03;6.17;;;18.50;79.80;;;-142.21;100.00;112049.66;5115531;28;20206;-69
2022/10/08 01:23:12;;;;;;;7.63;5.97;;;18.50;80.00;;;-142.21;100.00;112049.66;5115243;28;20527;-70
2022/10/08 01:25:56;;;;;;;7.87;5.90;;;18.50;80.00;;;-142.21;100.00;112049.66;5114589;28;20188;-70
2022/10/08 01:28:35;;;;;;;8.83;5.93;;;18.50;80.00;;;-142.21;100.00;112049.66;5114641;28;20489;-70
2022/10/08 01:31:09;;;;;;;9.10;6.03;;;18.60;80.10;;;-142.21;100.00;112049.66;5063222;28;20445;-71
2022/10/08 01:33:45;;;;;;;7.50;6.30;;;18.60;80.00;;;-142.21;100.00;112049.66;5114651;28;20803;-69
2022/10/08 01:36:16;;;;;;;8.63;6.00;;;18.50;80.10;;;-142.21;100.00;112049.66;5115020;28;20421;-70
2022/10/08 01:38:50;;;;;;;8.50;6.20;;;18.50;80.30;;;-142.21;100.00;112049.66;5113963;28;20498;-70
2022/10/08 01:41:25;;;;;;;12.80;6.33;;;18.50;80.30;;;-142.21;100.00;112049.66;5063813;28;20203;-70
2022/10/08 01:44:03;;;;;;;10.87;6.37;;;18.60;80.40;;;-142.21;100.00;112049.66;5114413;28;20515;-70
2022/10/08 01:46:33;;;;;;;12.90;6.87;;;18.50;80.30;;;-142.21;100.00;112049.66;5114013;28;20919;-72
2022/10/08 01:49:06;;;;;;;11.37;7.20;;;18.50;80.40;;;-142.21;100.00;112049.66;5115117;28;20477;-71
2022/10/08 01:51:40;;;;;;;8.73;6.70;;;18.60;80.60;;;-142.21;100.00;112049.66;5113802;28;20461;-70
2022/10/08 01:54:15;;;;;;;11.07;7.00;;;18.60;80.70;;;-142.21;100.00;112049.66;5114303;28;20196;-71
2022/10/08 01:56:46;;;;;;;10.57;7.27;;;18.60;80.50;;;-142.21;100.00;112049.66;5114628;28;20256;-70
2022/10/08 01:59:21;;;;;;;7.07;6.33;;;18.60;81.20;;;-142.21;100.00;112049.66;5096189;28;20628;-71
2022/10/08 02:02:00;;;;;;;9.40;7.37;;;18.60;80.80;;;-142.21;100.00;112049.66;5063816;28;20302;-70
2022/10/08 02:04:36;;;;;;;10.43;7.70;;;18.70;80.80;;;-142.21;100.00;112049.66;5113654;28;20192;-70
2022/10/08 02:07:08;;;;;;;13.07;6.83;;;18.60;80.80;;;-142.21;100.00;112049.66;5113923;28;20853;-70
2022/10/08 02:09:42;;;;;;;11.70;8.10;;;18.50;81.00;;;-142.21;100.00;112049.66;5114077;28;20576;-70
2022/10/08 02:12:10;;;;;;;9.90;7.37;;;18.60;81.30;;;-142.21;100.00;112049.66;5114341;28;20188;-71
2022/10/08 02:14:45;;;;;;;9.30;7.37;;;18.60;81.50;;;-142.21;100.00;112049.66;5113608;28;20445;-71
2022/10/08 02:17:25;;;;;;;11.93;8.20;;;18.60;81.60;;;-142.21;100.00;112049.66;5114286;28;20551;-70
2022/10/08 02:20:00;;;;;;;10.00;7.40;;;18.60;81.60;;;-142.21;100.00;112049.66;5114323;28;20517;-71
2022/10/08 02:22:35;;;;;;;12.10;7.63;;;18.60;81.60;;;-142.21;100.00;112049.66;5113282;28;20184;-71
2022/10/08 02:25:11;;;;;;;11.30;7.80;;;18.60;81.70;;;-142.21;100.00;112049.66;5114276;28;20201;-71
2022/10/08 02:27:51;;;;;;;9.90;8.17;;;18.60;81.60;;;-142.21;100.00;112049.66;5113069;28;20524;-70
2022/10/08 02:30:22;;;;;;;12.83;8.20;;;18.60;81.50;;;-142.21;100.00;112049.66;5113695;28;20485;-70
2022/10/08 02:32:57;;;;;;;10.50;7.50;;;18.60;81.60;;;-142.21;100.00;112049.66;5114026;28;20434;-70
2022/10/08 02:35:31;;;;;;;9.83;8.07;;;18.60;82.30;;;-142.21;100.00;112049.66;5060664;28;20203;-71
2022/10/08 02:38:06;;;;;;;12.17;7.87;;;18.70;81.70;;;-142.21;100.00;112049.66;5113672;28;20534;-71
2022/10/08 02:40:38;;;;;;;12.33;8.03;;;18.70;81.60;;;-142.21;100.00;112049.66;5112888;28;20768;-71
2022/10/08 02:43:14;;;;;;;11.27;7.83;;;18.70;81.60;;;-142.21;100.00;112049.66;5113639;28;20192;-70
2022/10/08 02:45:50;;;;;;;9.53;7.83;;;18.70;81.40;;;-142.21;100.00;112049.66;5112884;28;20426;-71
2022/10/08 02:48:26;;;;;;;9.00;8.07;;;18.80;81.30;;;-142.21;100.00;112049.66;5113631;28;20195;-71
2022/10/08 02:50:59;;;;;;;10.00;7.73;;;18.70;81.40;;;-142.21;100.00;112049.66;5113087;28;20207;-71
2022/10/08 02:53:27;;;;;;;11.47;7.87;;;18.80;81.40;;;-142.21;100.00;112049.66;5113109;28;20429;-70
2022/10/08 02:56:08;;;;;;;10.13;6.73;;;18.80;81.40;;;-142.21;100.00;112049.66;5113547;28;20206;-70
2022/10/08 02:58:36;;;;;;;10.23;7.53;;;18.80;81.30;;;-142.21;100.00;112049.66;5113029;28;20606;-70
2022/10/08 03:01:13;;;;;;;11.47;7.97;;;18.80;81.10;;;-142.21;100.00;112049.66;5095674;28;20212;-70
2022/10/08 03:03:46;;;;;;;12.57;7.93;;;18.90;81.10;;;-142.21;100.00;112049.66;5112840;28;20554;-70
2022/10/08 03:06:17;;;;;;;10.63;7.77;;;18.90;80.80;;;-142.21;100.00;112049.66;5095031;28;20425;-70
2022/10/08 03:08:49;;;;;;;12.23;8.83;;;18.90;80.70;;;-142.21;100.00;112049.66;5112412;28;20459;-70
2022/10/08 03:11:17;;;;;;;9.60;7.57;;;18.90;80.70;;;-142.21;100.00;112049.66;5113237;28;20850;-70
2022/10/08 03:13:48;;;;;;;9.93;7.70;;;18.90;80.70;;;-142.21;100.00;112049.66;5112483;28;20204;-69
2022/10/08 03:16:22;;;;;;;8.90;8.00;;;18.90;80.90;;;-142.21;100.00;112049.66;5113021;28;20184;-70
2022/10/08 03:18:51;;;;;;;10.33;8.00;;;18.80;81.00;;;-142.21;100.00;112049.66;5113039;28;20422;-70
2022/10/08 03:21:20;;;;;;;11.27;8.17;;;18.80;81.00;;;-142.21;100.00;112049.66;5112885;28;20442;-70
2022/10/08 03:23:47;;;;;;;8.83;7.53;;;18.90;81.10;;;-142.21;100.00;112049.66;5113109;28;20441;-70
2022/10/08 03:26:17;;;;;;;8.93;8.03;;;18.80;80.90;;;-142.21;100.00;112049.66;5112659;28;20206;-71
2022/10/08 03:28:44;;;;;;;8.93;6.97;;;18.80;81.00;;;-142.21;100.00;112049.66;5111898;28;21024;-70
2022/10/08 03:31:12;;;;;;;15.77;8.70;;;18.80;80.90;;;-142.21;100.00;112049.66;5112216;28;20200;-71
2022/10/08 03:33:40;;;;;;;13.27;7.80;;;18.90;81.00;;;-142.21;100.00;112049.66;5111864;28;20976;-70
2022/10/08 03:36:07;;;;;;;8.17;7.07;;;18.90;81.00;;;-142.21;100.00;112049.66;5112817;28;20532;-70
2022/10/08 03:38:35;;;;;;;10.63;7.40;;;18.90;81.00;;;-142.21;100.00;112049.66;5112225;28;20456;-70
2022/10/08 03:41:02;;;;;;;12.87;8.40;;;18.90;80.90;;;-142.21;100.00;112049.66;5112084;28;20238;-70
2022/10/08 03:43:33;;;;;;;12.37;7.83;;;18.90;80.80;;;-142.21;100.00;112049.66;5112083;28;20204;-71
2022/10/08 03:46:00;;;;;;;11.33;8.03;;;18.90;80.90;;;-142.21;100.00;112049.66;5112119;28;20191;-70
2022/10/08 03:48:28;;;;;;;12.00;8.23;;;18.90;80.80;;;-142.21;100.00;112049.66;5111762;28;20200;-69
2022/10/08 03:50:59;;;;;;;9.73;7.70;;;18.90;80.90;;;-142.21;100.00;112049.66;5112556;28;20825;-70
2022/10/08 03:53:28;;;;;;;9.90;8.50;;;18.90;81.00;;;-142.21;100.00;112049.66;5111581;28;20190;-71
2022/10/08 03:55:56;;;;;;;12.83;7.87;;;18.90;81.00;;;-142.21;100.00;112049.66;5112063;28;20955;-71
2022/10/08 03:58:23;;;;;;;9.23;8.10;;;18.90;81.10;;;-142.21;100.00;112049.66;5111823;28;20200;-71
2022/10/08 04:00:57;;;;;;;13.03;8.30;;;18.90;81.10;;;-142.21;100.00;112049.66;5112216;28;20446;-71
2022/10/08 04:03:25;;;;;;;10.90;8.27;;;18.90;81.30;;;-142.21;100.00;112049.66;5111286;28;20199;-71
2022/10/08 04:05:52;;;;;;;13.23;8.43;;;18.80;81.10;;;-142.21;100.00;112049.66;5112183;28;20429;-71
2022/10/08 04:08:21;;;;;;;12.30;8.80;;;18.80;81.10;;;-142.21;100.00;112049.66;5112085;28;20498;-71
2022/10/08 04:10:48;;;;;;;10.77;7.67;;;18.80;81.10;;;-142.21;100.00;112049.66;5111466;28;20232;-71
2022/10/08 04:13:16;;;;;;;8.57;7.77;;;18.80;81.10;;;-142.21;100.00;112049.66;5111881;28;20437;-71
2022/10/08 04:15:44;;;;;;;12.47;8.60;;;18.80;81.10;;;-142.21;100.00;112049.66;5111542;28;20452;-70
2022/10/08 04:18:12;;;;;;;10.03;8.47;;;18.80;81.30;;;-142.21;100.00;112049.66;5111549;28;20449;-71
2022/10/08 04:20:40;;;;;;;12.47;8.43;;;18.80;81.30;;;-142.21;100.00;112049.66;5111487;28;20519;-70
2022/10/08 04:23:08;;;;;;;13.57;8.83;;;18.80;81.40;;;-142.21;100.00;112049.66;5111600;28;20441;-71
2022/10/08 04:25:37;;;;;;;12.93;9.43;;;18.80;81.40;;;-142.21;100.00;112049.66;5111331;28;20445;-71
2022/10/08 04:28:04;;;;;;;11.90;8.60;;;18.80;81.40;;;-142.21;100.00;112049.66;5111967;28;20286;-71
2022/10/08 04:30:32;;;;;;;13.47;9.70;;;18.80;81.40;;;-142.21;100.00;112049.66;5111035;28;20237;-70
2022/10/08 04:32:59;;;;;;;10.17;8.90;;;18.80;81.40;;;-142.21;100.00;112049.66;5111522;28;20448;-70
2022/10/08 04:35:29;;;;;;;12.70;8.70;;;18.80;81.40;;;-142.21;100.00;112049.66;5111415;28;20529;-70
2022/10/08 04:37:56;;;;;;;13.67;9.37;;;18.80;81.80;;;-142.21;100.00;112049.66;5111914;28;20199;-70
2022/10/08 04:40:23;;;;;;;10.20;8.77;;;18.80;81.90;;;-142.21;100.00;112049.66;5111381;28;20695;-70
2022/10/08 04:42:52;;;;;;;10.07;8.03;;;18.70;82.50;;;-142.21;100.00;112049.66;5114462;28;20516;-71
2022/10/08 04:45:19;;;;;;;11.17;8.87;;;18.70;81.70;;;-142.21;100.00;112049.66;5115707;28;20449;-70
2022/10/08 04:47:46;;;;;;;13.40;9.27;;;18.70;81.80;;;-142.21;100.00;112049.66;5115014;28;20445;-71
2022/10/08 04:50:13;;;;;;;9.93;8.67;;;18.70;81.90;;;-142.21;100.00;112049.66;5115952;28;20477;-70
2022/10/08 04:52:41;;;;;;;13.23;9.53;;;18.70;81.70;;;-142.21;100.00;112049.66;5115146;28;20200;-70
2022/10/08 04:55:09;;;;;;;14.40;9.50;;;18.70;81.80;;;-142.21;100.00;112049.66;5115879;28;20294;-70
2022/10/08 04:57:37;;;;;;;11.63;9.10;;;18.60;81.90;;;-142.21;100.00;112049.66;5115287;28;20291;-70
2022/10/08 05:00:07;;;;;;;12.83;9.70;;;18.60;82.20;;;-142.21;100.00;112049.66;5115649;28;20199;-70
2022/10/08 05:02:35;;;;;;;10.93;9.40;;;18.60;82.10;;;-142.21;100.00;112049.66;5115043;28;20512;-70
2022/10/08 05:05:02;;;;;;;12.77;9.37;;;18.60;82.00;;;-142.21;100.00;112049.66;5115824;28;20208;-70
2022/10/08 05:07:29;;;;;;;12.80;9.43;;;18.60;82.90;;;-142.21;100.00;112049.66;5114677;28;20800;-71
2022/10/08 05:09:56;;;;;;;11.20;9.07;;;18.50;82.20;;;-142.21;100.00;112049.66;5115674;28;20230;-70
2022/10/08 05:12:23;;;;;;;14.30;9.57;;;18.50;82.10;;;-142.21;100.00;112049.66;5115575;28;20295;-70
2022/10/08 05:14:50;;;;;;;12.57;9.87;;;18.50;82.20;;;-142.21;100.00;112049.66;5114857;28;20441;-70
2022/10/08 05:17:22;;;;;;;12.17;9.70;;;18.50;82.50;;;-142.21;100.00;112049.66;5115341;28;20528;-70
2022/10/08 05:19:49;;;;;;;12.10;9.43;;;18.50;82.50;;;-142.21;100.00;112049.66;5114828;28;20504;-70
2022/10/08 05:22:19;;;;;;;15.33;9.40;;;18.50;82.40;;;-142.21;100.00;112049.66;5115257;28;20438;-70
2022/10/08 05:24:46;;;;;;;11.53;9.13;;;18.40;82.30;;;-142.21;100.00;112049.66;5114549;28;20437;-70
2022/10/08 05:27:13;;;;;;;11.23;9.07;;;18.40;82.30;;;-142.21;100.00;112049.66;5114895;28;20452;-70
2022/10/08 05:29:40;;;;;;;11.20;8.43;;;18.40;82.30;;;-142.21;100.00;112049.66;5114498;28;20313;-71
2022/10/08 05:32:07;;;;;;;10.37;8.33;;;18.40;82.20;;;-142.21;100.00;112049.66;5115050;28;20490;-70
2022/10/08 05:34:35;;;;;;;14.23;9.30;;;18.40;81.90;;;-142.21;100.00;112049.66;5114478;28;20473;-70
2022/10/08 05:37:03;;;;;;;14.33;9.23;;;18.40;81.60;;;-142.21;100.00;112049.66;5115030;28;20835;-71
2022/10/08 05:39:30;;;;;;;11.23;9.00;;;18.40;81.70;;;-142.21;100.00;112049.66;5113948;28;20477;-71
2022/10/08 05:41:57;;;;;;;13.00;8.73;;;18.40;81.90;;;-142.21;100.00;112049.66;5114868;28;20473;-70
2022/10/08 05:44:24;;;;;;;10.27;9.17;;;18.40;81.90;;;-142.21;100.00;112049.66;5114731;28;20442;-70
2022/10/08 05:46:51;;;;;;;12.83;8.70;;;18.30;82.10;;;-142.21;100.00;112049.66;5114483;28;20437;-70
2022/10/08 05:49:21;;;;;;;11.20;8.97;;;18.30;82.10;;;-142.21;100.00;112049.66;5114601;28;20469;-71
2022/10/08 05:51:50;;;;;;;13.93;8.57;;;18.30;82.10;;;-142.21;100.00;112049.66;5113720;28;20481;-70
2022/10/08 05:54:18;;;;;;;9.23;7.50;;;18.30;82.00;;;-142.21;100.00;112049.66;5113839;28;20532;-71
2022/10/08 05:56:46;;;;;;;11.47;8.50;;;18.30;81.90;;;-142.21;100.00;112049.66;5113692;28;20444;-70
2022/10/08 05:59:18;;;;;;;13.63;8.67;;;18.30;81.80;;;-142.21;100.00;112049.66;5114201;28;20445;-70
2022/10/08 06:01:48;;;;;;;12.13;8.83;;;18.30;81.60;;;-142.21;100.00;112049.66;5114147;28;20418;-70
2022/10/08 06:04:16;;;;;;;12.53;8.63;;;18.30;81.70;;;-142.21;100.00;112049.66;5114705;28;20525;-70
2022/10/08 06:06:43;;;;;;;13.50;8.77;;;18.30;81.80;;;-142.21;100.00;112049.66;5113895;28;20533;-70
2022/10/08 06:09:16;;;;;;;14.27;8.93;;;18.20;82.60;;;-142.21;100.00;112049.66;5114315;28;20473;-70
2022/10/08 06:11:45;;;;;;;10.00;8.63;;;18.20;82.10;;;-142.21;100.00;112049.66;5113798;28;20216;-71
2022/10/08 06:14:15;;;;;;;11.63;8.67;;;18.20;82.20;;;-142.21;100.00;112049.66;5114088;28;20441;-70
2022/10/08 06:16:43;;;;;;;14.00;9.00;;;18.20;82.20;;;-142.21;100.00;112049.66;5113916;28;20502;-70
2022/10/08 06:19:12;;;;;;;10.20;8.70;;;18.20;82.10;;;-142.21;100.00;112049.66;5113859;28;20437;-71
2022/10/08 06:21:40;;;;;;;10.17;7.87;;;18.30;82.00;;;-142.21;100.00;112049.66;5113216;28;20434;-71
2022/10/08 06:24:10;;;;;;;12.27;8.20;;;18.30;82.00;;;-142.21;100.00;112049.66;5114243;28;20445;-71
2022/10/08 06:26:43;;;;;;;12.93;8.40;;;18.30;82.00;;;-142.21;100.00;112049.66;5113237;28;20186;-71
2022/10/08 06:29:14;;;;;;;11.13;8.10;;;18.30;82.70;;;-142.21;100.00;112049.66;5113535;28;20466;-71
2022/10/08 06:31:41;;;;;;;15.23;8.37;;;18.30;82.10;;;-142.21;100.00;112049.66;5113423;28;20489;-70
2022/10/08 06:34:09;;;;;;;13.10;7.67;;;18.30;82.00;;;-142.21;100.00;112049.66;5113467;28;20536;-71
2022/10/08 06:36:37;;;;;;;10.10;8.03;;;18.30;82.00;;;-142.21;100.00;112049.66;5113477;28;20484;-71
2022/10/08 06:39:07;;;;;;;9.43;8.10;;;18.30;82.00;;;-142.21;100.00;112049.66;5113621;28;21059;-69
2022/10/08 06:41:34;;;;;;;13.13;8.23;;;18.40;82.00;;;-142.21;100.00;112049.66;5113275;28;20444;-70
2022/10/08 06:44:06;;;;;;;9.60;8.13;;;18.40;81.90;;;-142.21;100.00;112049.66;5113524;28;20464;-70
2022/10/08 06:46:34;;;;;;;10.50;8.20;;;18.50;81.90;;;-142.21;100.00;112049.66;5113144;28;20453;-70
2022/10/08 06:49:02;;;;;;;9.77;7.60;;;18.40;81.50;;;-142.21;100.00;112049.66;5113162;28;20964;-70
2022/10/08 06:51:30;;;;;;;9.40;8.27;;;18.40;81.40;;;-142.21;100.00;112049.66;5113233;28;20477;-70
2022/10/08 06:53:59;;;;;;;13.70;8.87;;;18.50;81.60;;;-142.21;100.00;112049.66;5113488;28;20536;-70
2022/10/08 06:56:27;;;;;;;8.77;7.40;;;18.50;81.50;;;-142.21;100.00;112049.66;5113586;28;20484;-70
2022/10/08 06:58:54;;;;;;;10.37;8.00;;;18.40;81.60;;;-142.21;100.00;112049.66;5112350;28;20520;-70
2022/10/08 07:01:28;;;;;;;10.50;7.93;;;18.50;81.60;;;-142.21;100.00;112049.66;5113764;28;20461;-70
2022/10/08 07:03:59;;;;;;;9.67;7.50;;;18.50;82.30;;;-142.21;100.00;112049.66;5112488;28;20195;-70
2022/10/08 07:06:27;;;;;;;10.83;8.00;;;18.50;81.60;;;-142.21;100.00;112049.66;5112935;28;20458;-73
2022/10/08 07:08:55;;;;;;;10.47;7.43;;;18.50;81.50;;;-142.21;100.00;112049.66;5112307;28;20214;-70
2022/10/08 07:11:23;;;;;;;11.90;8.03;;;18.60;81.60;;;-142.21;100.00;112049.66;5112933;28;20477;-70
2022/10/08 07:13:51;;;;;;;11.73;7.63;;;18.50;81.50;;;-142.21;100.00;112049.66;5112387;28;20963;-70
2022/10/08 07:16:22;;;;;;;12.40;7.77;;;18.50;81.20;;;-142.21;100.00;112049.66;5095395;28;20199;-70
2022/10/08 07:18:52;;;;;;;8.83;7.87;;;18.60;81.30;;;-142.21;100.00;112049.66;5112351;28;20420;-70
2022/10/08 07:21:22;;;;;;;9.80;7.30;;;18.60;81.30;;;-142.21;100.00;112049.66;5113103;28;20426;-70
2022/10/08 07:23:50;;;;;;;8.27;7.43;;;18.60;81.10;;;-142.21;100.00;112049.66;5112344;28;20477;-70
2022/10/08 07:26:20;;;;;;;10.33;7.83;;;18.60;80.90;;;-142.21;100.00;112049.66;5112754;28;20488;-70
2022/10/08 07:28:52;;;;;;;9.23;6.87;;;18.70;81.00;;;-142.21;100.00;112049.66;5059591;28;20493;-71
2022/10/08 07:31:25;;;;;;;8.50;6.93;;;18.60;80.70;;;-142.21;100.00;112049.66;5112420;28;20718;-71
2022/10/08 07:33:54;;;;;;;8.50;7.07;;;18.60;80.70;;;-142.21;100.00;112049.66;5112182;28;20767;-70
2022/10/08 07:36:24;;;;;;;10.97;7.63;;;18.60;80.70;;;-142.21;100.00;112049.66;5112438;28;20210;-70
2022/10/08 07:38:54;;;;;;;8.23;6.73;;;18.60;80.50;;;-142.21;100.00;112049.66;5112030;28;20540;-71
2022/10/08 07:41:23;;;;;;;7.50;6.67;;;18.60;80.50;;;-142.21;100.00;112049.66;5112160;28;20245;-71
2022/10/08 07:43:51;;;;;;;10.00;6.93;;;18.50;80.10;;;-142.21;100.00;112049.66;5111725;28;20941;-70
2022/10/08 07:46:19;;;;;;;9.43;6.70;;;18.60;80.40;;;-142.21;100.00;112049.66;5112214;28;20801;-70
2022/10/08 07:48:46;;;;;;;9.07;6.93;;;18.50;80.10;;;-142.21;100.00;112049.66;5111886;28;20284;-70
2022/10/08 07:51:17;;;;;;;10.13;6.70;;;18.40;80.20;;;-142.21;100.00;112049.66;5112415;28;20216;-71
2022/10/08 07:53:45;;;;;;;12.80;6.67;;;18.30;80.40;;;-142.21;100.00;112049.66;5111602;28;20437;-70
2022/10/08 07:56:16;;;;;;;11.20;6.63;;;18.20;80.50;;;-142.21;100.00;112049.66;5112007;28;20524;-70
2022/10/08 07:58:43;;;;;;;10.17;6.23;;;18.10;80.90;;;-142.21;100.00;112049.66;5111900;28;20425;-70
2022/10/08 08:01:14;;;;;;;8.97;5.97;;;18.10;80.80;;;-142.21;100.00;112049.66;5112185;28;20477;-70
2022/10/08 08:03:42;;;;;;;6.93;5.50;;;18.10;80.10;;;-142.21;100.00;112049.66;5111771;28;20430;-70
2022/10/08 08:06:12;;;;;;;6.03;5.10;;;18.20;80.00;;;-142.21;100.00;112049.66;5112309;28;20446;-71
2022/10/08 08:08:44;;;;;;;7.13;5.33;;;18.20;80.00;;;-142.21;100.00;112049.66;5111340;28;20591;-71
2022/10/08 08:11:14;;;;;;;8.53;5.83;;;18.40;79.60;;;-142.21;100.00;112049.66;5111698;28;20496;-70
2022/10/08 08:13:42;;;;;;;10.93;5.40;;;18.50;79.20;;;-142.21;100.00;112049.66;5111641;28;20524;-69
2022/10/08 08:16:12;;;;;;;7.33;5.23;;;18.60;78.40;;;-142.21;100.00;112049.66;5111410;28;21024;-70
2022/10/08 08:18:43;;;;;;;7.60;4.60;;;18.70;77.40;;;-142.21;100.00;112049.66;5111296;28;20441;-69
2022/10/08 08:21:14;;;;;;;9.07;4.53;;;18.80;77.10;;;-142.21;100.00;112049.66;5111496;28;20513;-71
2022/10/08 08:23:46;;;;;;;6.70;4.30;;;18.90;76.50;;;-142.21;100.00;112049.66;5111367;28;20429;-71
2022/10/08 08:26:17;;;;;;;5.33;3.60;;;19.10;75.80;;;-142.21;99.06;112049.66;5111723;28;20422;-71
2022/10/08 08:28:47;;;;;;;8.33;4.00;;;19.20;74.10;;;-142.21;97.51;112049.66;5111518;28;20654;-71
2022/10/08 08:31:18;;;;;;;6.93;3.63;;;19.20;73.00;;;-142.21;97.77;112049.66;5111682;28;20226;-71
2022/10/08 08:33:50;;;;;;;4.87;3.43;;;19.20;73.30;;;-142.21;96.18;112049.66;5111423;28;20184;-69
2022/10/08 08:36:18;;;;;;;6.03;3.43;;;19.20;72.30;;;-142.21;92.61;112049.66;5112001;28;20192;-70
2022/10/08 08:38:47;;;;;;;6.10;3.47;;;19.20;70.70;;;-142.21;90.56;112049.66;5111054;28;20446;-70
2022/10/08 08:41:41;;;;;;;8.30;3.40;;;19.10;68.80;;;-142.21;92.24;112049.66;5071166;28;20236;-70
2022/10/08 08:44:17;;;;;;;5.70;3.37;;;19.10;70.00;;;-142.21;89.43;112049.66;5071264;28;20465;-70
2022/10/08 08:46:51;;;;;;;5.90;3.87;;;19.10;68.30;;;-142.21;91.25;112049.66;5070802;28;20818;-70
2022/10/08 08:49:31;;;;;;;4.97;3.43;;;19.00;69.60;;;-142.21;91.10;112049.66;5088342;28;20188;-71
2022/10/08 08:52:01;;;;;;;6.10;3.90;;;19.10;69.20;;;-142.21;91.07;112049.66;5090610;28;20277;-70
2022/10/08 08:54:30;;;;;;;7.70;3.70;;;19.00;68.80;;;-142.21;92.50;112049.66;5091337;28;20204;-71
2022/10/08 08:57:18;;;;;;;6.90;3.80;;;18.90;70.80;;;-142.21;92.01;112049.66;5090894;28;20610;-71
2022/10/08 08:59:49;;;;;;;6.23;3.87;;;19.10;69.80;;;-142.21;92.34;112049.66;5089805;28;20433;-71
2022/10/08 09:02:26;;;;;;;7.53;3.53;;;19.10;69.80;;;-142.21;91.78;112049.66;5056377;28;20204;-70
2022/10/08 09:05:00;;;;;;;5.30;3.40;;;19.20;69.50;;;-142.21;91.60;112049.66;5090819;28;20191;-71
2022/10/08 09:07:41;;;;;;;6.90;3.20;;;19.30;69.40;;;-142.21;91.12;112049.66;5090975;28;20189;-71
2022/10/08 09:10:19;;;;;;;4.60;3.60;;;19.40;69.10;;;-142.21;91.02;112049.66;5091409;28;20185;-69
2022/10/08 09:12:48;;;;;;;7.93;3.47;;;19.60;68.70;;;-142.21;88.34;112049.66;5090463;28;20262;-70
2022/10/08 09:15:20;;;;;;;5.47;3.20;;;19.80;67.30;;;-142.21;89.06;112049.66;5091189;28;20560;-70
2022/10/08 09:17:51;;;;;;;6.67;3.20;;;19.90;67.80;;;-142.21;87.34;112049.66;5090680;28;20214;-69
2022/10/08 09:20:23;;;;;;;8.00;3.30;;;20.00;66.90;;;-142.21;85.67;112049.66;5090970;28;20189;-71
2022/10/08 09:22:54;;;;;;;5.50;2.90;;;20.20;66.00;;;-142.21;87.09;112049.66;5090251;28;20277;-70
2022/10/08 09:25:27;;;;;;;4.77;3.07;;;20.40;66.10;;;-142.21;83.40;112049.66;5090988;28;20186;-71
2022/10/08 09:27:56;;;;;;;6.57;3.13;;;20.60;64.70;;;-142.21;83.59;112049.66;5091155;28;20223;-71
2022/10/08 09:30:35;;;;;;;3.03;2.67;;;20.80;64.90;;;-142.21;83.36;112049.66;5094616;28;20224;-70
2022/10/08 09:33:17;;;;;;;6.33;2.87;;;21.00;64.40;;;-142.21;71.22;112049.66;5093853;28;20195;-71
2022/10/08 09:35:49;;;;;;;6.60;3.07;;;21.20;60.10;;;-142.21;68.59;112049.66;5093941;28;20191;-70
2022/10/08 09:38:23;;;;;;;7.87;3.00;;;21.30;58.80;;;-142.21;70.80;112049.66;5094117;28;20207;-70
2022/10/08 09:41:10;;;;;;;6.47;3.10;;;21.30;58.80;;;-142.21;69.23;112049.66;5111543;28;20314;-70
2022/10/08 09:43:40;;;;;;;5.30;3.07;;;21.40;57.70;;;-142.21;69.11;112049.66;5112748;28;20211;-70
2022/10/08 09:46:26;;;;;;;5.30;3.03;;;21.30;58.00;;;-142.21;72.90;112049.66;5115047;28;20230;-70
2022/10/08 09:48:54;;;;;;;8.93;2.63;;;21.30;59.30;;;-142.21;62.13;112049.66;5114288;28;20278;-70
2022/10/08 09:51:21;;;;;;;5.17;2.53;;;21.40;56.60;;;-142.21;61.39;112049.66;5114476;28;20223;-70
2022/10/08 09:53:54;;;;;;;6.63;2.27;;;21.50;56.30;;;-142.21;57.72;112049.66;5114318;28;20239;-71
2022/10/08 09:56:30;;;;;;;6.53;2.47;;;21.70;55.30;;;-142.21;55.27;112049.66;5114924;28;20199;-70
2022/10/08 09:59:02;;;;;;;5.13;2.33;;;21.80;54.30;;;-142.21;53.50;112049.66;5114020;28;20187;-70
2022/10/08 10:01:31;;;;;;;4.83;2.10;;;21.90;53.70;;;-142.21;52.61;112049.66;5114844;28;20279;-71
2022/10/08 10:04:01;;;;;;;3.40;2.27;;;21.70;52.50;;;-142.21;53.73;112049.66;5113805;28;20235;-69
2022/10/08 10:06:33;;;;;;;7.97;2.87;;;21.70;53.50;;;-142.21;52.63;112049.66;5114407;28;20601;-69